Nearby METAR Reports

 

KGSP - Greer/Spartansbg, South Carolina, USA
Distance from station: E 4mi, 6km
Updated: Sat, 28-Mar-2020 3:53am EDT
Clear
Clear
 Wind from SW
Wind: SW 5 mph , 7 km/h
Temperature: 64°F , 18°C
Dew Point: 59°F , 15°C
Humidity: 83%
Barometer: 29.94 inHg , 1013.9 hPa
Clouds: Clear
Visibility: 10 miles , 16 km
2020/03/28 07:53 KGSP 280753Z AUTO 23004KT 10SM CLR 18/15 A2994 RMK AO2 SLP128 T01830150
KGMU - Greenville, South Carolina, USA
Distance from station: SW 5mi, 8km
Updated: Sat, 28-Mar-2020 3:53am EDT
Clear
Clear
 Wind from WSW
Wind: WSW 5 mph , 7 km/h
Temperature: 68°F , 20°C
Dew Point: 61°F , 16°C
Humidity: 78%
Barometer: 29.95 inHg , 1014.2 hPa
Clouds: Clear
Visibility: 10 miles , 16 km
2020/03/28 07:53 KGMU 280753Z AUTO 24004KT 10SM CLR 20/16 A2995 RMK AO2 SLP130 T02000161
 
KGYH - Greenville, South Carolina, USA
Distance from station: SSW 11mi, 18km
Updated: Sat, 28-Mar-2020 3:55am EDT
Clear
Clear
 Wind from SW
Wind: SW 5 mph , 7 km/h
Temperature: 63°F , 17°C
Dew Point: 61°F , 16°C
Humidity: 94%
Barometer: 29.94 inHg , 1013.9 hPa
Clouds: Clear
Visibility: 10 miles , 16 km
2020/03/28 07:55 KGYH 280755Z AUTO 22004KT 10SM CLR 17/16 A2994 RMK AO2
KSPA - Spartanburg, South Carolina, USA
Distance from station: E 20mi, 32km
Updated: Sat, 28-Mar-2020 4:15am EDT
Clear
Clear
 Wind from calm
Wind: Calm
Temperature: 64°F , 18°C
Dew Point: 59°F , 15°C
Humidity: 83%
Barometer: 29.93 inHg , 1013.5 hPa
Clouds: Clear
Visibility: 10 miles , 16 km
2020/03/28 08:15 KSPA 280815Z AUTO 00000KT 10SM CLR 18/15 A2993 RMK AO2
 
KLQK - Pickens, South Carolina, USA
Distance from station: WSW 24mi, 39km
Updated: Sat, 28-Mar-2020 3:55am EDT
Clear
Clear
 Wind from WSW
Wind: WSW 5 mph , 7 km/h
Temperature: 63°F , 17°C
Dew Point: 63°F , 17°C
Humidity: 100%
Barometer: 29.93 inHg , 1013.5 hPa
Clouds: Clear
Visibility: 10 miles , 16 km
2020/03/28 07:55 KLQK 280755Z AUTO 24004KT 10SM CLR 17/17 A2993 RMK AO2 T01720169
KLUX - Laurens, South Carolina, USA
Distance from station: SE 33mi, 54km
Updated: Sat, 28-Mar-2020 3:55am EDT
Clear
Clear
 Wind from WSW
Wind: WSW 5 mph , 7 km/h
Temperature: 64°F , 18°C
Dew Point: 63°F , 17°C
Humidity: 94%
Barometer: 29.95 inHg , 1014.2 hPa
Clouds: Clear
Visibility: 7 miles , 11 km
2020/03/28 07:55 KLUX 280755Z AUTO 24004KT 7SM CLR 18/17 A2995 RMK AO2
 
KAND - Anderson, South Carolina, USA
Distance from station: SW 37mi, 59km
Updated: Sat, 28-Mar-2020 3:56am EDT
Clear
Clear
 Wind from SW
Wind: SW 6 mph , 9 km/h
Temperature: 64°F , 18°C
Dew Point: 61°F , 16°C
Humidity: 88%
Barometer: 29.94 inHg , 1013.9 hPa
Clouds: Clear
Visibility: 10 miles , 16 km
2020/03/28 07:56 KAND 280756Z AUTO 22005KT 10SM CLR 18/16 A2994 RMK AO2 SLP130 T01780156
KCEU - Clemson, South Carolina, USA
Distance from station: WSW 37mi, 60km
Updated: Sat, 28-Mar-2020 3:54am EDT
Clear
Clear
 Wind from SW
Wind: SW 3 mph , 6 km/h
Temperature: 66°F , 19°C
Dew Point: 55°F , 13°C
Humidity: 68%
Barometer: 29.95 inHg , 1014.2 hPa
Clouds: Clear
Visibility: 10 miles , 16 km
2020/03/28 07:54 KCEU 280754Z AUTO 22003KT 10SM CLR 19/13 A2995 RMK AO2 SLP131 T01940133
 
KAVL - Asheville, North Carolina, USA
Distance from station: NNW 40mi, 64km
Updated: Sat, 28-Mar-2020 3:54am EDT
Clear
Clear
 Wind from calm
Wind: Calm
Temperature: 57°F , 14°C
Dew Point: 52°F , 11°C
Humidity: 82%
Barometer: 29.99 inHg , 1015.6 hPa
Clouds: Clear
Visibility: 10 miles , 16 km
2020/03/28 07:54 KAVL 280754Z AUTO 00000KT 10SM CLR 14/11 A2999 RMK AO2 SLP128 T01390106
KFQD - Rutherfordton, North Carolina, USA
Distance from station: NNE 41mi, 66km
Updated: Sat, 28-Mar-2020 3:55am EDT
Clear
Clear
 Wind from SSW
Wind: SSW 6 mph , 9 km/h
Temperature: 59°F , 15°C
Dew Point: 57°F , 14°C
Humidity: 94%
Barometer: 29.94 inHg , 1013.9 hPa
Clouds: Clear
Visibility: 10 miles , 16 km
2020/03/28 07:55 KFQD 280755Z AUTO 20005KT 10SM CLR 15/14 A2994 RMK AO2
 
KGRD - Greenwood, South Carolina, USA
Distance from station: S 45mi, 73km
Updated: Sat, 28-Mar-2020 3:56am EDT
Clear
Clear
 Wind from SSW
Wind: SSW 6 mph , 9 km/h
Temperature: 64°F , 18°C
Dew Point: 63°F , 17°C
Humidity: 94%
Barometer: 29.95 inHg , 1014.2 hPa
Clouds: Clear
Visibility: 9 miles , 14 km
2020/03/28 07:56 KGRD 280756Z AUTO 21005KT 9SM CLR 18/17 A2995 RMK AO2 SLP137 T01830172
KEHO - Shelby Muni, North Carolina, USA
Distance from station: ENE 46mi, 74km
Updated: Wed, 18-Mar-2020 9:55pm EDT
NOT Current
Overcast
Overcast
 Wind from WNW
Wind: WNW 6 mph , 9 km/h
Temperature: 59°F , 15°C
Dew Point: 57°F , 14°C
Humidity: 94%
Barometer: 30.29 inHg , 1025.7 hPa
Clouds: Overcast
Visibility: 10 miles , 16 km
Cloud details: Overcast 2800 ft
2020/03/19 01:55 KEHO 190155Z AUTO 29005KT 10SM OVC028 15/14 A3029 RMK AO2 T01510135